createdAt,value
2022-07-27T00:00:10.289Z,2.86
2022-07-27T00:01:13.175Z,3.06
2022-07-27T00:02:15.800Z,3.39
2022-07-27T00:03:18.673Z,3.85
2022-07-27T00:04:21.317Z,3.50
2022-07-27T00:05:24.216Z,3.00
2022-07-27T00:06:27.293Z,3.07
2022-07-27T00:07:29.963Z,2.65
2022-07-27T00:08:32.491Z,2.99
2022-07-27T00:09:35.095Z,2.78
2022-07-27T00:10:38.182Z,3.31
2022-07-27T00:11:40.807Z,3.09
2022-07-27T00:12:43.411Z,3.93
2022-07-27T00:13:45.983Z,3.27
2022-07-27T00:14:48.960Z,3.39
2022-07-27T00:15:51.592Z,4.37
2022-07-27T00:16:55.116Z,3.47
2022-07-27T00:17:57.680Z,2.94
2022-07-27T00:19:00.768Z,3.38
2022-07-27T00:20:03.537Z,3.26
2022-07-27T00:21:06.244Z,3.33
2022-07-27T00:22:08.934Z,3.09
2022-07-27T00:23:11.743Z,3.41
2022-07-27T00:24:14.318Z,3.30
2022-07-27T00:25:16.946Z,3.20
2022-07-27T00:26:20.369Z,3.42
2022-07-27T00:27:23.031Z,3.43
2022-07-27T00:28:25.713Z,3.12
2022-07-27T00:29:28.376Z,3.44
2022-07-27T00:30:31.347Z,3.58
2022-07-27T00:31:33.982Z,4.01
2022-07-27T00:32:36.992Z,3.31
2022-07-27T00:33:39.583Z,3.89
2022-07-27T00:34:42.441Z,3.31
2022-07-27T00:35:45.119Z,4.58
2022-07-27T00:36:47.936Z,3.61
2022-07-27T00:37:50.608Z,3.41
2022-07-27T00:38:53.240Z,3.09
2022-07-27T00:39:55.842Z,3.07
2022-07-27T00:40:58.659Z,3.43
2022-07-27T00:42:01.962Z,2.91
2022-07-27T00:43:04.608Z,3.21
2022-07-27T00:44:07.176Z,2.76
2022-07-27T00:45:09.756Z,3.25
2022-07-27T00:46:12.913Z,4.04
2022-07-27T00:47:15.592Z,3.35
2022-07-27T00:48:18.159Z,2.91
2022-07-27T00:49:20.837Z,3.25
2022-07-27T00:50:24.212Z,3.24
2022-07-27T00:51:26.739Z,3.22
2022-07-27T00:52:29.359Z,3.24
2022-07-27T00:53:31.916Z,2.99
2022-07-27T00:54:34.588Z,3.31
2022-07-27T00:55:37.357Z,3.14
2022-07-27T00:56:40.240Z,3.06
2022-07-27T00:57:59.111Z,3.41
2022-07-27T00:58:47.311Z,3.24
2022-07-27T00:59:50.185Z,3.99
2022-07-27T01:00:53.050Z,3.24
2022-07-27T01:01:55.853Z,2.72
2022-07-27T01:02:58.832Z,3.09
2022-07-27T01:04:03.217Z,2.95
2022-07-27T01:05:07.114Z,3.15
2022-07-27T01:06:11.277Z,3.07
2022-07-27T01:07:13.885Z,3.48
2022-07-27T01:08:16.516Z,3.08
2022-07-27T01:09:19.119Z,3.55
2022-07-27T01:10:23.583Z,3.40
2022-07-27T01:11:26.301Z,2.91
2022-07-27T01:12:28.860Z,3.20
2022-07-27T01:13:31.441Z,3.06
2022-07-27T01:14:34.104Z,3.28
2022-07-27T01:15:36.733Z,2.87
2022-07-27T01:16:40.207Z,3.51
2022-07-27T01:17:42.832Z,2.97
2022-07-27T01:18:45.502Z,2.79
2022-07-27T01:19:48.131Z,3.25
2022-07-27T01:20:51.145Z,3.03
2022-07-27T01:21:53.915Z,2.93
2022-07-27T01:22:56.543Z,2.88
2022-07-27T01:23:59.768Z,3.37
2022-07-27T01:25:02.425Z,3.13
2022-07-27T01:26:05.728Z,3.52
2022-07-27T01:27:08.389Z,4.24
2022-07-27T01:28:11.069Z,3.07
2022-07-27T01:29:14.180Z,3.16
2022-07-27T01:30:18.243Z,3.39
2022-07-27T01:31:20.941Z,3.32
2022-07-27T01:32:23.597Z,2.70
2022-07-27T01:33:26.345Z,3.97
2022-07-27T01:34:29.020Z,4.71
2022-07-27T01:35:31.692Z,13.69
2022-07-27T01:36:34.465Z,5.14
2022-07-27T01:37:37.129Z,4.14
2022-07-27T01:38:41.544Z,6.58
2022-07-27T01:39:44.082Z,4.81
2022-07-27T01:40:47.089Z,5.19
2022-07-27T01:41:50.065Z,4.28
2022-07-27T01:42:53.341Z,3.79
2022-07-27T01:43:55.911Z,3.72
2022-07-27T01:44:58.608Z,4.09
2022-07-27T01:46:01.164Z,4.55
2022-07-27T01:47:03.813Z,4.07
2022-07-27T01:48:08.535Z,5.16
2022-07-27T01:49:11.602Z,4.16
2022-07-27T01:50:16.201Z,4.08
2022-07-27T01:51:18.754Z,4.95
2022-07-27T01:52:21.359Z,3.59
2022-07-27T01:53:24.237Z,4.11
2022-07-27T01:54:26.847Z,3.25
2022-07-27T01:55:36.948Z,3.78
2022-07-27T01:56:34.085Z,3.35
2022-07-27T01:57:36.715Z,3.73
2022-07-27T01:58:39.320Z,4.15
2022-07-27T01:59:41.889Z,4.12
2022-07-27T02:00:44.864Z,3.98
2022-07-27T02:01:47.605Z,3.69
2022-07-27T02:02:50.510Z,3.66
2022-07-27T02:03:53.201Z,3.91
2022-07-27T02:04:55.787Z,4.13
2022-07-27T02:05:58.516Z,3.30
2022-07-27T02:07:01.492Z,3.40
2022-07-27T02:08:04.064Z,4.08
2022-07-27T02:09:06.755Z,4.15
2022-07-27T02:10:10.746Z,3.98
2022-07-27T02:11:13.296Z,3.42
2022-07-27T02:12:15.824Z,3.57
2022-07-27T02:13:22.308Z,4.22
2022-07-27T02:14:22.951Z,3.95
2022-07-27T02:15:25.709Z,3.71
2022-07-27T02:16:28.885Z,3.64
2022-07-27T02:17:35.104Z,4.26
2022-07-27T02:18:37.921Z,4.24
2022-07-27T02:19:41.508Z,4.29
2022-07-27T02:20:45.225Z,5.02
2022-07-27T02:21:48.099Z,4.46
2022-07-27T02:22:50.748Z,4.97
2022-07-27T02:23:53.374Z,4.13
2022-07-27T02:24:55.983Z,4.45
2022-07-27T02:25:58.502Z,4.76
2022-07-27T02:27:01.730Z,4.66
2022-07-27T02:28:04.296Z,4.44
2022-07-27T02:29:06.866Z,4.17
2022-07-27T02:30:11.379Z,4.65
2022-07-27T02:31:13.912Z,4.50
2022-07-27T02:32:16.534Z,4.79
2022-07-27T02:33:19.160Z,4.70
2022-07-27T02:34:22.217Z,4.88
2022-07-27T02:35:24.843Z,6.11
2022-07-27T02:36:27.919Z,5.06
2022-07-27T02:37:30.572Z,5.25
2022-07-27T02:38:33.161Z,4.69
2022-07-27T02:39:35.767Z,5.75
2022-07-27T02:40:38.607Z,4.89
2022-07-27T02:41:41.208Z,5.35
2022-07-27T02:42:43.829Z,5.11
2022-07-27T02:43:46.859Z,5.64
2022-07-27T02:44:49.624Z,5.45
2022-07-27T02:45:52.338Z,4.97
2022-07-27T02:46:55.516Z,5.34
2022-07-27T02:47:59.516Z,5.31
2022-07-27T02:49:02.171Z,5.03
2022-07-27T02:50:05.164Z,5.17
2022-07-27T02:51:07.832Z,5.35
2022-07-27T02:52:10.499Z,5.23
2022-07-27T02:53:13.075Z,5.51
2022-07-27T02:54:15.737Z,5.71
2022-07-27T02:55:18.323Z,5.51
2022-07-27T02:56:26.893Z,5.49
2022-07-27T02:57:26.363Z,5.67
2022-07-27T02:58:28.849Z,6.02
2022-07-27T02:59:31.439Z,5.57
2022-07-27T03:00:34.268Z,6.01
2022-07-27T03:01:37.240Z,5.35
2022-07-27T03:02:40.267Z,5.70
2022-07-27T03:03:42.949Z,7.07
2022-07-27T03:04:45.533Z,5.66
2022-07-27T03:05:48.434Z,5.55
2022-07-27T03:06:51.472Z,5.26
2022-07-27T03:07:54.020Z,5.99
2022-07-27T03:08:56.791Z,5.43
2022-07-27T03:09:59.360Z,6.01
2022-07-27T03:11:02.150Z,6.13
2022-07-27T03:12:04.841Z,5.55
2022-07-27T03:13:07.468Z,5.44
2022-07-27T03:14:10.080Z,5.78
2022-07-27T03:15:12.662Z,5.50
2022-07-27T03:16:16.460Z,5.41
2022-07-27T03:17:19.374Z,6.34
2022-07-27T03:18:21.944Z,5.94
2022-07-27T03:19:28.373Z,6.02
2022-07-27T03:20:30.150Z,6.01
2022-07-27T03:21:32.818Z,5.49
2022-07-27T03:22:36.006Z,5.52
2022-07-27T03:23:38.674Z,5.58
2022-07-27T03:24:43.076Z,5.86
2022-07-27T03:25:45.678Z,5.95
2022-07-27T03:26:48.619Z,5.77
2022-07-27T03:27:51.151Z,5.89
2022-07-27T03:28:53.755Z,5.13
2022-07-27T03:29:56.427Z,6.05
2022-07-27T03:30:59.390Z,5.92
2022-07-27T03:32:02.277Z,7.10
2022-07-27T03:33:05.048Z,6.11
2022-07-27T03:34:07.672Z,6.04
2022-07-27T03:35:11.824Z,5.63
2022-07-27T03:36:15.099Z,5.08
2022-07-27T03:37:17.871Z,5.75
2022-07-27T03:38:20.471Z,6.44
2022-07-27T03:39:23.069Z,6.15
2022-07-27T03:40:27.579Z,6.09
2022-07-27T03:41:30.598Z,5.69
2022-07-27T03:42:33.228Z,6.39
2022-07-27T03:43:36.245Z,5.93
2022-07-27T03:44:39.020Z,6.07
2022-07-27T03:45:41.607Z,5.91
2022-07-27T03:46:44.557Z,6.10
2022-07-27T03:47:47.168Z,5.79
2022-07-27T03:48:49.863Z,6.37
2022-07-27T03:49:52.565Z,6.34
2022-07-27T03:50:55.236Z,6.32
2022-07-27T03:51:57.865Z,6.25
2022-07-27T03:53:00.504Z,6.21
2022-07-27T03:54:03.041Z,6.65
2022-07-27T03:55:05.915Z,5.91
2022-07-27T03:56:09.232Z,5.69
2022-07-27T03:57:11.763Z,6.29
2022-07-27T03:58:14.430Z,6.21
2022-07-27T03:59:17.099Z,6.10
2022-07-27T04:00:21.202Z,5.84
2022-07-27T04:01:24.194Z,5.70
2022-07-27T04:02:27.324Z,5.66
2022-07-27T04:03:30.031Z,5.80
2022-07-27T04:04:32.596Z,6.09
2022-07-27T04:05:35.035Z,6.10
2022-07-27T04:06:38.047Z,5.74
2022-07-27T04:07:41.936Z,6.84
2022-07-27T04:08:44.504Z,5.18
2022-07-27T04:09:48.459Z,6.01
2022-07-27T04:10:53.020Z,6.01
2022-07-27T04:11:55.696Z,6.72
2022-07-27T04:12:58.357Z,5.79
2022-07-27T04:14:01.949Z,6.24
2022-07-27T04:15:04.616Z,6.06
2022-07-27T04:16:07.590Z,6.08
2022-07-27T04:17:10.258Z,6.29
2022-07-27T04:18:13.248Z,5.79
2022-07-27T04:19:16.272Z,5.33
2022-07-27T04:20:20.112Z,5.88
2022-07-27T04:21:23.395Z,6.28
2022-07-27T04:22:28.323Z,5.83
2022-07-27T04:23:36.169Z,5.34
2022-07-27T04:24:35.600Z,5.82
2022-07-27T04:25:38.125Z,5.48
2022-07-27T04:26:41.042Z,5.43
2022-07-27T04:27:43.610Z,5.42
2022-07-27T04:28:46.276Z,5.74
2022-07-27T04:29:48.959Z,5.34
2022-07-27T04:30:52.083Z,4.82
2022-07-27T04:31:54.798Z,5.47
2022-07-27T04:32:57.497Z,5.52
2022-07-27T04:34:00.135Z,4.53
2022-07-27T04:35:02.707Z,5.44
2022-07-27T04:36:05.683Z,4.49
2022-07-27T04:37:08.360Z,4.97
2022-07-27T04:38:11.016Z,5.07
2022-07-27T04:39:13.943Z,5.29
2022-07-27T04:41:30.215Z,5.37
2022-07-27T04:42:33.392Z,4.65
2022-07-27T04:43:36.961Z,4.57
2022-07-27T04:44:39.488Z,5.18
2022-07-27T04:45:42.125Z,4.82
2022-07-27T04:46:45.074Z,4.74
2022-07-27T04:47:47.676Z,4.91
2022-07-27T04:48:50.291Z,4.45
2022-07-27T04:49:52.941Z,4.83
2022-07-27T04:50:55.917Z,4.42
2022-07-27T04:51:58.485Z,4.86
2022-07-27T04:53:01.093Z,4.51
2022-07-27T04:54:03.765Z,3.91
2022-07-27T04:55:06.439Z,3.91
2022-07-27T04:56:09.608Z,4.76
2022-07-27T04:57:12.178Z,3.79
2022-07-27T04:58:14.883Z,3.92
2022-07-27T04:59:17.521Z,3.85
2022-07-27T05:00:21.928Z,3.85
2022-07-27T05:01:24.633Z,4.20
2022-07-27T05:02:27.877Z,3.74
2022-07-27T05:03:30.403Z,3.79
2022-07-27T05:04:33.046Z,4.09
2022-07-27T05:05:35.993Z,4.50
2022-07-27T05:06:39.065Z,4.51
2022-07-27T05:07:41.639Z,3.38
2022-07-27T05:08:44.305Z,3.87
2022-07-27T05:09:46.977Z,3.41
2022-07-27T05:10:49.775Z,4.27
2022-07-27T05:11:52.496Z,3.64
2022-07-27T05:12:55.350Z,3.74
2022-07-27T05:13:57.919Z,3.69
2022-07-27T05:15:00.680Z,4.11
2022-07-27T05:16:03.430Z,3.49
2022-07-27T05:17:06.363Z,3.95
2022-07-27T05:18:09.411Z,4.11
2022-07-27T05:19:12.560Z,4.19
2022-07-27T05:20:17.304Z,4.36
2022-07-27T05:21:21.052Z,4.35
2022-07-27T05:22:23.973Z,4.36
2022-07-27T05:23:26.539Z,4.35
2022-07-27T05:24:29.064Z,4.07
2022-07-27T05:25:31.613Z,4.24
2022-07-27T05:26:34.704Z,4.62
2022-07-27T05:27:37.332Z,4.11
2022-07-27T05:28:41.874Z,4.44
2022-07-27T05:29:44.877Z,5.31
2022-07-27T05:30:47.844Z,4.33
2022-07-27T05:31:50.481Z,4.31
2022-07-27T05:32:53.480Z,4.37
2022-07-27T05:33:58.370Z,4.57
2022-07-27T05:35:00.710Z,4.54
2022-07-27T05:36:03.646Z,4.83
2022-07-27T05:37:07.998Z,4.72
2022-07-27T05:38:10.643Z,4.23
2022-07-27T05:39:13.928Z,4.29
2022-07-27T05:40:18.482Z,4.41
2022-07-27T05:41:21.296Z,4.68
2022-07-27T05:42:24.256Z,3.89
2022-07-27T05:43:27.806Z,3.86
2022-07-27T05:44:30.425Z,4.60
2022-07-27T05:45:33.177Z,3.97
2022-07-27T05:46:37.087Z,4.09
2022-07-27T05:47:40.674Z,4.56
2022-07-27T05:48:43.249Z,3.55
2022-07-27T05:49:46.017Z,4.33
2022-07-27T05:50:48.990Z,3.72
2022-07-27T05:51:51.657Z,4.05
2022-07-27T05:52:54.325Z,3.50
2022-07-27T05:53:56.892Z,3.67
2022-07-27T05:54:59.426Z,3.93
2022-07-27T05:56:01.954Z,3.91
2022-07-27T05:57:04.591Z,3.80
2022-07-27T05:58:07.161Z,3.87
2022-07-27T05:59:10.133Z,4.60
2022-07-27T06:00:14.011Z,4.91
2022-07-27T06:01:16.646Z,4.07
2022-07-27T06:02:19.276Z,4.38
2022-07-27T06:03:22.394Z,4.19
2022-07-27T06:04:25.227Z,4.28
2022-07-27T06:05:27.753Z,4.26
2022-07-27T06:06:31.185Z,4.34
2022-07-27T06:07:35.546Z,4.52
2022-07-27T06:08:38.157Z,4.15
2022-07-27T06:09:40.728Z,4.62
2022-07-27T06:10:43.397Z,4.18
2022-07-27T06:11:46.065Z,5.16
2022-07-27T06:12:48.737Z,4.64
2022-07-27T06:13:51.441Z,4.39
2022-07-27T06:14:54.023Z,4.53
2022-07-27T06:15:56.641Z,4.33
2022-07-27T06:16:59.427Z,4.71
2022-07-27T06:18:02.078Z,4.53
2022-07-27T06:19:04.702Z,4.25
2022-07-27T06:20:08.032Z,5.05
2022-07-27T06:21:11.034Z,4.71
2022-07-27T06:22:13.669Z,4.16
2022-07-27T06:23:16.195Z,4.25
2022-07-27T06:24:18.806Z,4.53
2022-07-27T06:25:21.680Z,4.78
2022-07-27T06:26:25.274Z,5.12
2022-07-27T06:27:29.699Z,4.53
2022-07-27T06:28:32.454Z,5.04
2022-07-27T06:29:35.121Z,4.72
2022-07-27T06:30:38.097Z,4.67
2022-07-27T06:31:40.754Z,5.00
2022-07-27T06:32:45.176Z,5.88
2022-07-27T06:33:50.990Z,4.66
2022-07-27T06:34:53.996Z,4.36
2022-07-27T06:35:57.664Z,4.89
2022-07-27T06:37:02.220Z,4.19
2022-07-27T06:38:04.873Z,4.14
2022-07-27T06:39:07.545Z,3.93
2022-07-27T06:40:11.349Z,4.21
2022-07-27T06:41:14.004Z,3.80
2022-07-27T06:42:16.678Z,3.98
2022-07-27T06:43:19.445Z,3.77
2022-07-27T06:44:21.972Z,4.01
2022-07-27T06:45:24.582Z,5.17
2022-07-27T06:46:28.930Z,4.26
2022-07-27T06:47:31.558Z,4.10
2022-07-27T06:48:34.206Z,4.13
2022-07-27T06:49:36.893Z,3.91
2022-07-27T06:50:40.184Z,3.66
2022-07-27T06:51:42.853Z,3.47
2022-07-27T06:52:45.521Z,3.61
2022-07-27T06:53:48.093Z,4.13
2022-07-27T06:54:50.868Z,4.31
2022-07-27T06:55:53.524Z,3.74
2022-07-27T06:56:58.036Z,3.79
2022-07-27T06:58:00.559Z,3.51
2022-07-27T06:59:03.180Z,3.29
2022-07-27T07:00:06.316Z,3.81
2022-07-27T07:01:09.187Z,3.67
2022-07-27T07:02:11.995Z,4.06
2022-07-27T07:03:14.665Z,4.27
2022-07-27T07:04:17.258Z,4.33
2022-07-27T07:05:22.052Z,3.38
2022-07-27T07:06:25.152Z,3.46
2022-07-27T07:07:27.699Z,3.77
2022-07-27T07:08:30.472Z,4.51
2022-07-27T07:09:33.137Z,4.31
2022-07-27T07:10:36.425Z,3.96
2022-07-27T07:11:39.029Z,3.71
2022-07-27T07:12:41.659Z,3.85
2022-07-27T07:13:45.200Z,3.49
2022-07-27T07:14:47.994Z,3.98
2022-07-27T07:15:50.674Z,3.61
2022-07-27T07:16:53.464Z,3.71
2022-07-27T07:17:56.441Z,3.72
2022-07-27T07:18:59.114Z,3.88
2022-07-27T07:20:01.679Z,3.91
2022-07-27T07:21:04.268Z,3.85
2022-07-27T07:22:06.911Z,4.30
2022-07-27T07:23:09.582Z,3.81
2022-07-27T07:24:12.253Z,3.69
2022-07-27T07:25:15.021Z,3.69
2022-07-27T07:26:18.344Z,4.31
2022-07-27T07:27:20.977Z,4.21
2022-07-27T07:28:23.600Z,4.12
2022-07-27T07:29:26.211Z,3.76
2022-07-27T07:30:29.599Z,3.94
2022-07-27T07:31:32.403Z,4.16
2022-07-27T07:32:35.156Z,3.52
2022-07-27T07:33:37.708Z,3.71
2022-07-27T07:34:40.376Z,3.89
2022-07-27T07:36:13.712Z,3.67
2022-07-27T07:36:47.767Z,3.46
2022-07-27T07:37:50.865Z,4.39
2022-07-27T07:38:53.744Z,4.86
2022-07-27T07:39:56.509Z,4.61
2022-07-27T07:40:59.641Z,4.20
2022-07-27T07:42:02.648Z,4.03
2022-07-27T07:43:05.894Z,3.61
2022-07-27T07:44:08.501Z,3.83
2022-07-27T07:45:11.064Z,3.74
2022-07-27T07:46:14.260Z,3.70
2022-07-27T07:47:16.909Z,3.99
2022-07-27T07:48:19.442Z,4.06
2022-07-27T07:49:38.110Z,3.71
2022-07-27T07:50:28.502Z,4.13
2022-07-27T07:51:31.171Z,3.79
2022-07-27T07:52:33.665Z,3.73
2022-07-27T07:53:41.202Z,4.03
2022-07-27T07:54:40.784Z,4.13
2022-07-27T07:55:43.589Z,3.59
2022-07-27T07:56:46.463Z,4.29
2022-07-27T07:57:49.133Z,3.55
2022-07-27T07:58:53.607Z,3.86
2022-07-27T07:59:56.341Z,3.69
2022-07-27T08:00:59.291Z,3.90
2022-07-27T08:02:02.248Z,4.27
2022-07-27T08:03:05.315Z,3.26
2022-07-27T08:04:08.253Z,3.70
2022-07-27T08:05:10.848Z,3.99
2022-07-27T08:06:15.429Z,3.46
2022-07-27T08:07:18.102Z,3.43
2022-07-27T08:08:20.772Z,3.45
2022-07-27T08:09:25.327Z,3.71
2022-07-27T08:10:29.356Z,3.52
2022-07-27T08:11:31.880Z,3.62
2022-07-27T08:12:34.500Z,3.16
2022-07-27T08:13:37.162Z,3.68
2022-07-27T08:14:39.726Z,4.03
2022-07-27T08:15:42.507Z,3.66
2022-07-27T08:16:45.895Z,3.40
2022-07-27T08:17:50.292Z,3.92
2022-07-27T08:18:52.861Z,3.63
2022-07-27T08:19:55.537Z,3.98
2022-07-27T08:20:58.609Z,4.06
2022-07-27T08:22:02.198Z,3.70
2022-07-27T08:23:05.439Z,3.99
2022-07-27T08:24:08.048Z,3.71
2022-07-27T08:25:10.717Z,4.03
2022-07-27T08:26:15.337Z,4.52
2022-07-27T08:27:18.001Z,3.77
2022-07-27T08:28:20.681Z,4.22
2022-07-27T08:29:23.991Z,4.37
2022-07-27T08:30:32.204Z,4.77
2022-07-27T08:31:52.684Z,3.79
2022-07-27T08:32:39.485Z,4.49
2022-07-27T08:33:42.312Z,4.07
2022-07-27T08:34:44.879Z,4.31
2022-07-27T08:35:47.365Z,4.41
2022-07-27T08:36:50.628Z,3.87
2022-07-27T08:37:53.193Z,5.12
2022-07-27T08:38:55.760Z,4.27
2022-07-27T08:41:02.925Z,3.79
2022-07-27T08:42:05.509Z,4.49
2022-07-27T08:43:08.484Z,4.55
2022-07-27T08:44:11.157Z,4.07
2022-07-27T08:45:16.108Z,4.46
2022-07-27T08:46:20.040Z,3.97
2022-07-27T08:47:22.811Z,5.38
2022-07-27T08:48:25.415Z,4.91
2022-07-27T08:49:42.000Z,3.86
2022-07-27T08:50:32.556Z,3.75
2022-07-27T08:51:35.165Z,3.67
2022-07-27T08:52:37.746Z,3.45
2022-07-27T08:53:52.694Z,3.93
2022-07-27T08:54:44.776Z,4.17
2022-07-27T08:55:47.387Z,4.07
2022-07-27T08:56:50.557Z,3.82
2022-07-27T08:57:53.124Z,4.33
2022-07-27T08:58:55.693Z,3.74
2022-07-27T08:59:58.361Z,3.75
2022-07-27T09:01:01.236Z,3.56
2022-07-27T09:02:05.116Z,3.42
2022-07-27T09:03:07.965Z,4.09
2022-07-27T09:04:10.898Z,3.41
2022-07-27T09:05:13.552Z,3.59
2022-07-27T09:06:17.962Z,3.73
2022-07-27T09:07:20.631Z,3.36
2022-07-27T09:08:23.195Z,3.15
2022-07-27T09:09:25.772Z,3.23
2022-07-27T09:10:29.256Z,3.17
2022-07-27T09:11:31.931Z,3.08
2022-07-27T09:12:34.489Z,3.21
2022-07-27T09:13:37.058Z,3.12
2022-07-27T09:14:39.742Z,3.40
2022-07-27T09:16:03.402Z,3.99
2022-07-27T09:17:44.098Z,3.07
2022-07-27T09:17:51.895Z,3.41
2022-07-27T09:18:54.609Z,3.24
2022-07-27T09:19:57.276Z,3.69
2022-07-27T09:21:00.296Z,3.20
2022-07-27T09:22:04.180Z,3.24
2022-07-27T09:23:06.818Z,3.37
2022-07-27T09:24:23.317Z,4.24
2022-07-27T09:25:14.302Z,3.92
2022-07-27T09:26:31.203Z,2.98
2022-07-27T09:27:22.410Z,3.34
2022-07-27T09:28:25.075Z,2.95
2022-07-27T09:29:27.749Z,3.37
2022-07-27T09:30:31.986Z,3.48
2022-07-27T09:31:34.542Z,3.09
2022-07-27T09:32:37.388Z,3.17
2022-07-27T09:33:39.916Z,2.91
2022-07-27T09:34:43.284Z,3.20
2022-07-27T09:35:47.141Z,3.13
2022-07-27T09:36:50.117Z,3.35
2022-07-27T09:37:52.788Z,2.91
2022-07-27T09:39:00.169Z,3.24
2022-07-27T09:39:59.923Z,3.59
2022-07-27T09:41:02.537Z,2.98
2022-07-27T09:42:06.104Z,2.64
2022-07-27T09:43:32.126Z,3.22
2022-07-27T09:44:32.258Z,2.92
2022-07-27T09:45:19.762Z,2.73
2022-07-27T09:46:24.899Z,2.99
2022-07-27T09:47:29.371Z,2.99
2022-07-27T09:48:32.029Z,2.86
2022-07-27T09:49:34.641Z,3.00
2022-07-27T09:50:38.607Z,3.21
2022-07-27T09:51:59.298Z,2.70
2022-07-27T09:52:45.789Z,2.56
2022-07-27T09:53:48.456Z,3.14
2022-07-27T09:54:51.014Z,2.79
2022-07-27T09:55:58.984Z,2.73
2022-07-27T09:56:58.340Z,3.01
2022-07-27T09:58:00.905Z,2.84
2022-07-27T09:59:03.576Z,2.82
2022-07-27T10:00:06.623Z,3.04
2022-07-27T10:01:09.752Z,2.84
2022-07-27T10:02:12.667Z,2.57
2022-07-27T10:03:15.645Z,2.96
2022-07-27T10:04:18.331Z,2.39
2022-07-27T10:05:20.881Z,2.65
2022-07-27T10:06:25.255Z,2.93
2022-07-27T10:07:28.925Z,2.77
2022-07-27T10:08:31.489Z,2.84
2022-07-27T10:09:34.069Z,2.96
2022-07-27T10:10:37.142Z,2.87
2022-07-27T10:11:39.808Z,4.33
2022-07-27T10:12:42.686Z,4.45
2022-07-27T10:13:45.350Z,4.81
2022-07-27T10:14:48.024Z,3.59
2022-07-27T10:15:50.764Z,2.93
2022-07-27T10:16:53.724Z,2.72
2022-07-27T10:17:56.338Z,2.48
2022-07-27T10:18:59.014Z,3.49
2022-07-27T10:20:01.632Z,2.95
2022-07-27T10:21:04.340Z,3.03
2022-07-27T10:22:06.972Z,3.01
2022-07-27T10:23:09.985Z,3.20
2022-07-27T10:24:13.351Z,3.01
2022-07-27T10:25:16.245Z,3.10
2022-07-27T10:26:19.594Z,4.29
2022-07-27T10:27:22.310Z,3.82
2022-07-27T10:28:25.277Z,3.17
2022-07-27T10:29:27.848Z,3.35
2022-07-27T10:30:30.844Z,3.07
2022-07-27T10:31:33.479Z,2.97
2022-07-27T10:32:36.163Z,3.02
2022-07-27T10:33:38.830Z,3.12
2022-07-27T10:34:41.401Z,2.94
2022-07-27T10:35:44.035Z,3.47
2022-07-27T10:36:47.173Z,3.85
2022-07-27T10:37:49.917Z,3.24
2022-07-27T10:38:52.485Z,3.03
2022-07-27T10:39:55.049Z,2.89
2022-07-27T10:40:58.123Z,2.94
2022-07-27T10:42:02.127Z,2.86
2022-07-27T10:43:04.961Z,2.78
2022-07-27T10:44:07.672Z,2.53
2022-07-27T10:45:10.365Z,3.12
2022-07-27T10:46:13.912Z,2.69
2022-07-27T10:47:16.561Z,2.76
2022-07-27T10:48:19.374Z,2.71
2022-07-27T10:49:23.973Z,2.52
2022-07-27T10:50:27.075Z,2.51
2022-07-27T10:51:29.698Z,2.48
2022-07-27T10:52:32.308Z,2.41
2022-07-27T10:53:55.089Z,3.55
2022-07-27T10:54:39.798Z,2.58
2022-07-27T10:55:42.568Z,2.73
2022-07-27T10:56:45.241Z,2.90
2022-07-27T10:57:47.912Z,2.94
2022-07-27T10:58:50.501Z,2.49
2022-07-27T11:00:12.201Z,2.86
2022-07-27T11:00:57.979Z,2.78
2022-07-27T11:02:00.599Z,2.76
2022-07-27T11:03:03.420Z,2.90
2022-07-27T11:04:06.154Z,2.65
2022-07-27T11:05:18.303Z,2.51
2022-07-27T11:07:24.990Z,2.42
2022-07-27T11:08:36.793Z,2.43
2022-07-27T11:10:34.378Z,2.39
2022-07-27T11:11:36.946Z,2.94
2022-07-27T11:12:39.621Z,2.45
2022-07-27T11:13:42.285Z,2.56
2022-07-27T11:14:44.919Z,2.49
2022-07-27T11:15:47.537Z,2.72
2022-07-27T11:16:55.989Z,2.54
2022-07-27T11:18:03.396Z,2.52
2022-07-27T11:18:59.509Z,2.08
2022-07-27T11:20:02.496Z,2.67
2022-07-27T11:21:05.069Z,2.35
2022-07-27T11:22:22.218Z,2.89
2022-07-27T11:23:49.978Z,2.56
2022-07-27T11:24:17.705Z,2.48
2022-07-27T11:25:20.342Z,2.41
2022-07-27T11:26:24.039Z,2.21
2022-07-27T11:27:26.598Z,2.27
2022-07-27T11:28:29.169Z,2.51
2022-07-27T11:29:31.747Z,2.69
2022-07-27T11:30:35.391Z,2.56
2022-07-27T11:31:54.716Z,2.68
2022-07-27T11:32:42.716Z,3.45
2022-07-27T11:33:45.382Z,2.49
2022-07-27T11:34:47.907Z,2.77
2022-07-27T11:35:50.631Z,2.38
2022-07-27T11:36:54.004Z,2.69
2022-07-27T11:37:56.553Z,2.67
2022-07-27T11:38:59.142Z,2.71
2022-07-27T11:40:05.039Z,2.47
2022-07-27T11:41:15.304Z,3.29
2022-07-27T11:42:11.997Z,2.51
2022-07-27T11:43:15.856Z,2.54
2022-07-27T11:44:18.792Z,2.34
2022-07-27T11:45:22.119Z,5.18
2022-07-27T11:46:25.165Z,2.42
2022-07-27T11:47:28.382Z,2.63
2022-07-27T11:48:44.022Z,2.23
2022-07-27T11:49:35.509Z,2.35
2022-07-27T11:50:39.151Z,2.63
2022-07-27T11:51:41.823Z,2.74
2022-07-27T11:52:44.454Z,2.51
2022-07-27T11:53:47.057Z,2.75
2022-07-27T11:54:49.533Z,2.85
2022-07-27T11:55:52.190Z,2.31
2022-07-27T11:56:55.472Z,2.85
2022-07-27T11:57:58.041Z,2.90
2022-07-27T11:59:01.544Z,2.55
2022-07-27T12:00:04.420Z,2.86
2022-07-27T12:01:06.970Z,3.56
2022-07-27T12:02:09.570Z,3.29
2022-07-27T12:03:12.720Z,3.22
2022-07-27T12:04:15.388Z,3.62
2022-07-27T12:05:18.085Z,3.26
2022-07-27T12:06:22.471Z,3.49
2022-07-27T12:07:25.136Z,3.60
2022-07-27T12:08:27.707Z,2.83
2022-07-27T12:09:38.308Z,3.36
2022-07-27T12:10:37.731Z,3.51
2022-07-27T12:11:39.296Z,3.29
2022-07-27T12:12:42.067Z,2.99
2022-07-27T12:13:44.632Z,2.92
2022-07-27T12:14:47.206Z,3.02
2022-07-27T12:15:49.767Z,2.87
2022-07-27T12:16:52.425Z,3.56
2022-07-27T12:17:55.018Z,3.56
2022-07-27T12:18:59.109Z,3.65
2022-07-27T12:20:01.681Z,2.49
2022-07-27T12:21:04.261Z,3.01
2022-07-27T12:22:06.818Z,3.47
2022-07-27T12:23:09.888Z,3.81
2022-07-27T12:24:12.561Z,2.69
2022-07-27T12:25:16.903Z,3.38
2022-07-27T12:26:20.349Z,2.54
2022-07-27T12:27:23.043Z,3.25
2022-07-27T12:28:25.791Z,2.63
2022-07-27T12:29:28.364Z,2.44
2022-07-27T12:30:31.736Z,3.11
2022-07-27T12:31:34.626Z,2.83
2022-07-27T12:32:37.184Z,2.81
2022-07-27T12:33:39.761Z,2.37
2022-07-27T12:34:42.551Z,2.34
2022-07-27T12:35:46.233Z,2.41
2022-07-27T12:36:51.072Z,2.22
2022-07-27T12:37:54.421Z,2.53
2022-07-27T12:38:56.996Z,2.57
2022-07-27T12:39:59.660Z,3.10
2022-07-27T12:41:02.634Z,2.58
2022-07-27T12:42:05.339Z,2.83
2022-07-27T12:43:08.583Z,2.50
2022-07-27T12:44:11.219Z,2.99
2022-07-27T12:45:13.868Z,3.34
2022-07-27T12:46:18.178Z,2.83
2022-07-27T12:47:25.426Z,2.96
2022-07-27T12:48:25.209Z,3.41
2022-07-27T12:49:27.774Z,2.91
2022-07-27T12:50:30.926Z,3.97
2022-07-27T12:51:33.524Z,3.17
2022-07-27T12:52:36.093Z,2.94
2022-07-27T12:53:38.771Z,4.19
2022-07-27T12:54:41.593Z,2.95
2022-07-27T12:55:44.206Z,2.90
2022-07-27T12:56:47.284Z,3.04
2022-07-27T12:57:57.392Z,2.93
2022-07-27T12:58:54.217Z,2.91
2022-07-27T12:59:56.840Z,3.33
2022-07-27T13:00:59.866Z,2.76
2022-07-27T13:02:03.378Z,2.86
2022-07-27T13:03:06.059Z,2.90
2022-07-27T13:04:08.628Z,3.07
2022-07-27T13:05:11.073Z,3.04
2022-07-27T13:06:14.785Z,2.95
2022-07-27T13:07:17.764Z,2.89
2022-07-27T13:08:20.330Z,2.88
2022-07-27T13:09:22.903Z,2.79
2022-07-27T13:10:27.307Z,2.64
2022-07-27T13:11:29.933Z,2.86
2022-07-27T13:12:32.543Z,2.93
2022-07-27T13:13:35.069Z,2.89
2022-07-27T13:14:37.880Z,2.92
2022-07-27T13:15:42.699Z,2.82
2022-07-27T13:16:45.725Z,2.96
2022-07-27T13:17:48.655Z,2.56
2022-07-27T13:18:51.178Z,2.96
2022-07-27T13:19:53.852Z,2.75
2022-07-27T13:20:56.664Z,2.60
2022-07-27T13:21:59.329Z,3.33
2022-07-27T13:23:01.910Z,2.99
2022-07-27T13:24:05.386Z,3.26
2022-07-27T13:25:16.132Z,3.59
2022-07-27T13:26:13.140Z,3.83
2022-07-27T13:27:15.813Z,4.11
2022-07-27T13:28:18.420Z,3.71
2022-07-27T13:29:21.395Z,3.92
2022-07-27T13:30:25.822Z,4.22
2022-07-27T13:31:28.521Z,4.27
2022-07-27T13:32:31.567Z,4.30
2022-07-27T13:33:34.282Z,3.63
2022-07-27T13:34:36.889Z,3.63
2022-07-27T13:35:41.376Z,3.94
2022-07-27T13:36:45.625Z,4.53
2022-07-27T13:37:48.283Z,3.87
2022-07-27T13:38:50.949Z,3.87
2022-07-27T13:39:53.719Z,4.35
2022-07-27T13:40:56.598Z,3.66
2022-07-27T13:41:59.570Z,4.46
2022-07-27T13:43:02.507Z,4.40
2022-07-27T13:44:06.956Z,3.84
2022-07-27T13:45:11.204Z,4.55
2022-07-27T13:46:14.846Z,4.27
2022-07-27T13:47:17.527Z,3.65
2022-07-27T13:48:20.224Z,3.27
2022-07-27T13:49:22.916Z,4.13
2022-07-27T13:50:26.557Z,3.77
2022-07-27T13:51:29.433Z,4.51
2022-07-27T13:52:32.103Z,4.73
2022-07-27T13:53:34.771Z,4.88
2022-07-27T13:54:37.343Z,5.27
2022-07-27T13:56:51.691Z,4.14
2022-07-27T13:57:54.359Z,3.96
2022-07-27T13:58:56.932Z,3.86
2022-07-27T13:59:59.591Z,4.93
2022-07-27T14:01:07.094Z,3.92
2022-07-27T14:02:07.133Z,4.13
2022-07-27T14:03:11.380Z,4.95
2022-07-27T14:04:14.369Z,6.39